This is the latest recevied weather packets stored in our database for station/object K4AMF. If no packets are shown the sender has not sent any weather packets the latest 10 day(s).
| Time | Temp. | Humidity | Pressure | Rain* | Wind** | Luminosity | Snow |
|---|---|---|---|---|---|---|---|
| 1777601905 | 22.22° C | 91% | 1012.1 hPa | 0 mm | - | 0 W/m² | - |
| 1777601600 | 22.22° C | 91% | 1011.8 hPa | 0 mm | - | 0 W/m² | - |
| 1777601296 | 22.22° C | 91% | 1012.1 hPa | 0 mm | - | 0 W/m² | - |
| 1777600993 | 22.22° C | 90% | 1011.8 hPa | 0 mm | - | 0 W/m² | - |
| 1777587027 | 30.56° C | 55% | 1008.9 hPa | 0 mm | - | 110 W/m² | - |
| 1777586420 | 30.56° C | 57% | 1008.6 hPa | 0 mm | - | 92 W/m² | - |
| 1777585818 | 30.56° C | 57% | 1008.7 hPa | 0 mm | - | 285 W/m² | - |
| 1777584606 | 30.56° C | 56% | 1008.5 hPa | 0 mm | - | 363 W/m² | - |
| 1777584303 | 30.56° C | 56% | 1008.7 hPa | 0 mm | - | 375 W/m² | - |
| 1777583998 | 30° C | 58% | 1008.8 hPa | 0 mm | - | 378 W/m² | - |
| 1777583693 | 30° C | 57% | 1008.9 hPa | 0 mm | - | 415 W/m² | - |
| 1777583393 | 30.56° C | 56% | 1008.7 hPa | 0 mm | - | 434 W/m² | - |
| 1777581878 | 28.89° C | 66% | 1009.4 hPa | 0 mm | - | 524 W/m² | - |
| 1777581268 | 29.44° C | 64% | 1009.3 hPa | 0 mm | - | 464 W/m² | - |
| 1777580663 | 29.44° C | 63% | 1009.7 hPa | 0 mm | - | 197 W/m² | - |
| 1777580358 | 30° C | 62% | 1009.6 hPa | 0 mm | - | 269 W/m² | - |
| 1777580055 | 30° C | 62% | 1009.5 hPa | 0 mm | - | 420 W/m² | - |
| 1777579751 | 29.44° C | 64% | 1009.2 hPa | 0 mm | - | 277 W/m² | - |
| 1777579449 | 29.44° C | 64% | 1009.7 hPa | 0 mm | - | 366 W/m² | - |
| 1777579144 | 29.44° C | 64% | 1009.7 hPa | 0 mm | - | 194 W/m² | - |
| 1777578843 | 30° C | 65% | 1009.5 hPa | 0 mm | - | 199 W/m² | - |
| 1777578235 | 29.44° C | 67% | 1009.7 hPa | 0 mm | - | 377 W/m² | - |
| 1777577931 | 28.89° C | 69% | 1009.9 hPa | 0 mm | - | 270 W/m² | - |
| 1777577319 | 27.78° C | 69% | 1009.9 hPa | 0 mm | - | 494 W/m² | - |
| 1777576712 | 27.22° C | 74% | 1010.1 hPa | 0 mm | - | 242 W/m² | - |
* Rain latest hour (hover to see other rain measurements)
** Current wind speed in m/s (hover to see current wind gust speed)